Westville, SC

8:02 PM EST on February 09, 2016 (GMT -0500)
Woodward | | Change Station
CLOSE
Current Station
Airport
Location: Camden,
Elevation: 302 ft
Nearby Weather Stations
Active Advisory: Lake Wind Advisory

Elev 302 ft 34.28 °N, 80.56 °W | Updated 7 minutes ago

Mostly Cloudy
Mostly Cloudy
36 °F
Feels Like 28 °F
N
10
Wind Variable Wind from WSW
Gusts 18 mph

Today
High -- | Low -- °F
--% Chance of Precip.
Yesterday
High -- | Low -- °F
Precip. -- in
Pressure 29.87 in
Visibility 10.0 miles
Clouds Few 6000 ft
Mostly Cloudy 10000 ft
Windchill 28 °F
Dew Point 36 °F
Humidity 100%
Rainfall 0.01 in
Snow Depth Not available.
7:13 AM 5:59 PM
Waxing Crescent, 3% visible
METAR KCDN 100055Z AUTO 24009G16KT 10SM FEW060 BKN100 02/02 A2987 RMK AO2
Pressure 29.87 in
Visibility 10.0 miles
Clouds Few 6000 ft
Mostly Cloudy 10000 ft
Windchill 28 °F
Dew Point 36 °F
Humidity 100%
Rainfall 0.01 in
Snow Depth Not available.
7:13 AM 5:59 PM
Waxing Crescent, 3% visible
METAR KCDN 100055Z AUTO 24009G16KT 10SM FEW060 BKN100 02/02 A2987 RMK AO2

10-Day Weather Forecast

Almanac

Astronomy

Feb. 09, 2016 Rise Set
Actual Time
Civil Twilight
Nautical Twilight
Astronomical Twilight
Moon
Length of Visible Light
Length of Day
Tomorrow will be .
, % of the Moon is Illuminated

Today's Extremes

State Highs State Lows

Community

WunderPhotos

Upload Photos

1,891,752 photos uploaded!

WunderBlog® & News

Nearby

Air Quality

  Air Quality AQ Index Pollutant
Not available.

Snow Depth

Station Depth Elevation

Earthquake Activity

City Distance Mag. Time & Date
Minimum magnitude displayed is 2.5.

Coastal Water Temperatures

Place Temperature

Stations

Nearby Weather Stations

Station Location Temp. Windchill Dew Point Humidity Wind Precip. Elev Updated Type
                   

Watches & Warnings

Lake Wind Advisory
Issued: 2:32 PM EST Feb. 9, 2016 – National Weather Service

... Lake Wind Advisory remains in effect until 11 PM EST
Wednesday...

* timing... today through Wednesday evening.

* Winds... west 20 to 30 knots.

* Impacts... strong winds and rough chop will create hazardous
conditions for small craft and personal watercraft.

Precautionary/preparedness actions...

A lake Wind Advisory indicates that winds will cause rough chop
on area lakes. Small boats will be especially prone to capsizing.